createdAt,value
2023-05-04T00:00:17.084Z,10.89
2023-05-04T00:03:04.263Z,10.89
2023-05-04T00:05:32.671Z,10.89
2023-05-04T00:07:59.769Z,10.87
2023-05-04T00:10:28.075Z,10.87
2023-05-04T00:12:55.226Z,10.86
2023-05-04T00:15:23.072Z,10.85
2023-05-04T00:17:50.223Z,10.84
2023-05-04T00:20:18.515Z,10.84
2023-05-04T00:22:45.798Z,10.83
2023-05-04T00:25:13.294Z,10.82
2023-05-04T00:27:40.896Z,10.81
2023-05-04T00:30:09.056Z,10.79
2023-05-04T00:32:36.188Z,10.78
2023-05-04T00:35:04.050Z,10.77
2023-05-04T00:37:31.219Z,10.76
2023-05-04T00:39:58.600Z,10.77
2023-05-04T00:42:26.115Z,10.76
2023-05-04T00:44:54.865Z,10.76
2023-05-04T00:47:23.132Z,10.75
2023-05-04T00:49:52.821Z,10.73
2023-05-04T00:52:20.941Z,10.74
2023-05-04T00:54:49.002Z,10.74
2023-05-04T00:57:17.277Z,10.72
2023-05-04T00:59:44.620Z,10.71
2023-05-04T01:02:11.873Z,10.71
2023-05-04T01:04:39.693Z,10.68
2023-05-04T01:07:22.633Z,10.66
2023-05-04T01:10:12.405Z,10.65
2023-05-04T01:12:49.007Z,10.64
2023-05-04T01:15:16.624Z,10.62
2023-05-04T01:17:44.129Z,10.62
2023-05-04T01:20:12.255Z,10.62
2023-05-04T01:22:39.902Z,10.59
2023-05-04T01:25:08.479Z,10.57
2023-05-04T01:27:51.192Z,10.55
2023-05-04T01:30:32.219Z,10.55
2023-05-04T01:33:02.868Z,10.56
2023-05-04T01:35:30.611Z,10.54
2023-05-04T01:37:57.813Z,10.54
2023-05-04T01:40:25.371Z,10.52
2023-05-04T01:42:52.606Z,10.50
2023-05-04T01:45:20.461Z,10.55
2023-05-04T01:47:48.031Z,10.50
2023-05-04T01:50:15.561Z,10.49
2023-05-04T01:52:42.813Z,10.50
2023-05-04T01:55:10.440Z,10.46
2023-05-04T01:57:37.593Z,10.46
2023-05-04T02:00:05.698Z,10.42
2023-05-04T02:02:43.372Z,10.44
2023-05-04T02:05:13.656Z,10.41
2023-05-04T02:07:40.837Z,10.42
2023-05-04T02:10:09.195Z,10.41
2023-05-04T02:12:36.456Z,10.38
2023-05-04T02:15:05.444Z,10.36
2023-05-04T02:17:32.774Z,10.35
2023-05-04T02:20:00.229Z,10.33
2023-05-04T02:22:28.593Z,10.29
2023-05-04T02:24:56.798Z,10.25
2023-05-04T02:27:24.012Z,10.20
2023-05-04T02:29:51.391Z,10.17
2023-05-04T02:32:18.636Z,10.13
2023-05-04T02:34:46.016Z,10.10
2023-05-04T02:37:13.128Z,10.06
2023-05-04T02:39:40.463Z,10.03
2023-05-04T02:42:07.591Z,9.99
2023-05-04T02:44:35.035Z,9.98
2023-05-04T02:47:06.228Z,9.92
2023-05-04T02:49:33.756Z,9.90
2023-05-04T02:55:33.724Z,9.86
2023-05-04T02:58:01.391Z,9.82
2023-05-04T03:00:28.776Z,9.78
2023-05-04T03:02:55.955Z,9.75
2023-05-04T03:05:24.041Z,9.73
2023-05-04T03:07:53.016Z,9.70
2023-05-04T03:10:20.426Z,9.73
2023-05-04T03:12:47.725Z,9.67
2023-05-04T03:15:15.349Z,9.66
2023-05-04T03:17:43.380Z,9.61
2023-05-04T03:20:13.439Z,9.60
2023-05-04T03:22:42.073Z,9.56
2023-05-04T03:25:10.264Z,9.56
2023-05-04T03:27:37.872Z,9.53
2023-05-04T03:30:06.739Z,9.53
2023-05-04T03:32:35.205Z,9.51
2023-05-04T03:35:04.111Z,9.53
2023-05-04T03:37:31.901Z,9.53
2023-05-04T03:39:59.332Z,9.52
2023-05-04T03:42:26.692Z,9.53
2023-05-04T03:44:54.434Z,9.54
2023-05-04T03:47:21.622Z,9.56
2023-05-04T03:49:49.138Z,9.54
2023-05-04T03:52:16.257Z,9.53
2023-05-04T03:54:43.669Z,9.52
2023-05-04T03:57:12.087Z,9.54
2023-05-04T03:59:40.020Z,9.55
2023-05-04T04:02:07.214Z,9.54
2023-05-04T04:04:34.822Z,9.52
2023-05-04T04:07:02.066Z,9.54
2023-05-04T04:09:31.484Z,9.54
2023-05-04T04:11:58.610Z,9.56
2023-05-04T04:14:26.624Z,9.57
2023-05-04T04:16:53.799Z,9.59
2023-05-04T04:19:21.192Z,9.60
2023-05-04T04:21:48.240Z,9.61
2023-05-04T04:24:15.688Z,9.59
2023-05-04T04:26:43.161Z,9.60
2023-05-04T04:29:10.831Z,9.63
2023-05-04T04:31:38.072Z,9.65
2023-05-04T04:34:05.937Z,9.68
2023-05-04T04:36:33.498Z,9.70
2023-05-04T04:39:00.894Z,9.74
2023-05-04T04:41:28.165Z,9.76
2023-05-04T04:43:55.954Z,9.79
2023-05-04T04:46:23.159Z,9.80
2023-05-04T04:48:52.514Z,9.82
2023-05-04T04:51:19.933Z,9.85
2023-05-04T04:53:47.303Z,9.89
2023-05-04T04:56:14.646Z,9.91
2023-05-04T04:58:42.491Z,9.94
2023-05-04T05:01:09.648Z,9.95
2023-05-04T05:03:37.299Z,9.98
2023-05-04T05:06:04.415Z,10.01
2023-05-04T05:08:33.673Z,10.05
2023-05-04T05:11:00.781Z,10.09
2023-05-04T05:13:28.279Z,10.14
2023-05-04T05:15:55.646Z,10.18
2023-05-04T05:18:23.960Z,10.18
2023-05-04T05:20:51.120Z,10.23
2023-05-04T05:23:18.458Z,10.28
2023-05-04T05:25:45.649Z,10.29
2023-05-04T05:28:16.162Z,10.33
2023-05-04T05:30:44.020Z,10.40
2023-05-04T05:33:11.513Z,10.43
2023-05-04T05:35:38.699Z,10.47
2023-05-04T05:38:06.049Z,10.54
2023-05-04T05:40:33.259Z,10.61
2023-05-04T05:43:00.704Z,10.67
2023-05-04T05:45:27.989Z,10.72
2023-05-04T05:47:55.915Z,10.73
2023-05-04T05:50:24.265Z,10.77
2023-05-04T05:52:51.681Z,10.81
2023-05-04T05:55:18.938Z,10.86
2023-05-04T05:57:46.250Z,10.90
2023-05-04T06:00:14.402Z,10.93
2023-05-04T06:02:42.775Z,10.97
2023-05-04T06:05:11.550Z,11.00
2023-05-04T06:07:38.906Z,10.97
2023-05-04T06:10:07.025Z,11.01
2023-05-04T06:12:35.026Z,11.10
2023-05-04T06:15:02.438Z,11.20
2023-05-04T06:17:30.032Z,11.26
2023-05-04T06:19:57.249Z,11.31
2023-05-04T06:22:24.666Z,11.39
2023-05-04T06:24:52.952Z,11.44
2023-05-04T06:27:23.710Z,11.53
2023-05-04T06:29:52.025Z,11.66
2023-05-04T06:32:19.503Z,11.68
2023-05-04T06:34:46.716Z,11.74
2023-05-04T06:37:15.556Z,11.84
2023-05-04T06:39:43.232Z,12.00
2023-05-04T06:42:11.417Z,12.14
2023-05-04T06:44:40.944Z,12.26
2023-05-04T06:47:08.432Z,12.37
2023-05-04T06:49:36.161Z,12.47
2023-05-04T06:52:03.921Z,12.58
2023-05-04T06:54:31.839Z,12.71
2023-05-04T06:56:59.194Z,12.93
2023-05-04T06:59:26.746Z,13.20
2023-05-04T07:01:54.314Z,13.47
2023-05-04T07:04:23.349Z,13.73
2023-05-04T07:06:51.381Z,13.77
2023-05-04T07:09:22.136Z,13.92
2023-05-04T07:11:49.562Z,14.15
2023-05-04T07:14:16.842Z,14.39
2023-05-04T07:16:44.425Z,14.63
2023-05-04T07:19:11.791Z,14.92
2023-05-04T07:21:39.313Z,15.30
2023-05-04T07:24:07.347Z,15.65
2023-05-04T07:26:34.789Z,15.98
2023-05-04T07:29:02.182Z,16.29
2023-05-04T07:31:30.577Z,16.58
2023-05-04T07:33:57.945Z,16.83
2023-05-04T07:36:26.665Z,17.11
2023-05-04T07:38:54.621Z,17.48
2023-05-04T07:41:22.255Z,17.61
2023-05-04T07:43:49.428Z,17.72
2023-05-04T07:46:17.112Z,17.93
2023-05-04T07:48:44.377Z,18.08
2023-05-04T07:51:16.602Z,18.30
2023-05-04T07:53:43.863Z,18.25
2023-05-04T07:56:12.856Z,18.49
2023-05-04T07:58:41.276Z,18.54
2023-05-04T08:01:08.699Z,18.61
2023-05-04T08:03:36.334Z,18.63
2023-05-04T08:06:04.125Z,18.96
2023-05-04T08:08:31.275Z,19.34
2023-05-04T08:11:11.975Z,19.64
2023-05-04T08:13:48.015Z,19.76
2023-05-04T08:16:15.665Z,19.90
2023-05-04T08:18:43.430Z,20.26
2023-05-04T08:21:11.075Z,20.76
2023-05-04T08:23:38.468Z,21.14
2023-05-04T08:26:05.895Z,20.92
2023-05-04T08:28:39.972Z,21.31
2023-05-04T08:31:07.827Z,21.39
2023-05-04T08:33:35.018Z,21.48
2023-05-04T08:36:04.813Z,21.78
2023-05-04T08:38:32.118Z,21.75
2023-05-04T08:41:03.763Z,21.12
2023-05-04T08:43:35.237Z,21.42
2023-05-04T08:46:03.948Z,21.72
2023-05-04T08:48:36.989Z,21.27
2023-05-04T08:51:06.538Z,21.86
2023-05-04T08:53:37.235Z,22.01
2023-05-04T08:56:09.551Z,22.01
2023-05-04T08:58:43.827Z,21.86
2023-05-04T09:01:13.046Z,22.14
2023-05-04T09:03:41.299Z,22.31
2023-05-04T09:06:11.516Z,22.73
2023-05-04T09:08:38.746Z,22.85
2023-05-04T09:11:06.157Z,22.99
2023-05-04T09:13:34.064Z,22.74
2023-05-04T09:16:01.556Z,21.88
2023-05-04T09:18:44.288Z,21.93
2023-05-04T09:21:12.378Z,21.76
2023-05-04T09:23:48.319Z,22.64
2023-05-04T09:26:35.274Z,22.05
2023-05-04T09:29:16.321Z,22.18
2023-05-04T09:31:50.413Z,22.35
2023-05-04T09:34:22.239Z,21.89
2023-05-04T09:37:02.859Z,22.13
2023-05-04T09:39:30.702Z,22.49
2023-05-04T09:41:58.142Z,22.91
2023-05-04T09:44:29.657Z,23.24
2023-05-04T09:46:58.777Z,22.86
2023-05-04T09:49:34.577Z,23.29
2023-05-04T09:52:05.714Z,23.36
2023-05-04T09:54:36.085Z,23.21
2023-05-04T09:57:15.163Z,22.51
2023-05-04T09:59:42.879Z,22.19
2023-05-04T10:02:22.423Z,22.50
2023-05-04T10:04:52.740Z,22.67
2023-05-04T10:07:21.020Z,22.69
2023-05-04T10:09:51.158Z,23.05
2023-05-04T10:12:18.642Z,23.07
2023-05-04T10:14:46.893Z,22.88
2023-05-04T10:17:36.444Z,21.89
2023-05-04T10:20:38.090Z,22.07
2023-05-04T10:23:33.142Z,22.42
2023-05-04T10:26:59.568Z,22.00
2023-05-04T10:29:31.024Z,21.53
2023-05-04T10:31:59.497Z,21.35
2023-05-04T10:34:33.620Z,20.98
2023-05-04T10:37:03.177Z,21.57
2023-05-04T10:39:34.004Z,21.84
2023-05-04T10:42:08.402Z,21.58
2023-05-04T10:44:51.319Z,21.48
2023-05-04T10:47:37.247Z,20.73
2023-05-04T10:50:08.490Z,20.73
2023-05-04T10:52:57.637Z,21.08
2023-05-04T10:55:26.491Z,21.44
2023-05-04T10:57:56.738Z,21.81
2023-05-04T11:00:37.905Z,22.27
2023-05-04T11:03:09.333Z,22.42
2023-05-04T11:05:45.596Z,21.92
2023-05-04T11:08:24.334Z,22.17
2023-05-04T11:11:07.000Z,22.55
2023-05-04T11:13:35.029Z,21.90
2023-05-04T11:16:05.285Z,22.22
2023-05-04T11:18:37.283Z,22.27
2023-05-04T11:21:04.929Z,22.37
2023-05-04T11:23:32.623Z,22.34
2023-05-04T11:26:07.971Z,22.76
2023-05-04T11:28:38.221Z,23.10
2023-05-04T11:31:17.111Z,23.47
2023-05-04T11:33:50.209Z,22.44
2023-05-04T11:36:19.220Z,22.25
2023-05-04T11:38:47.550Z,22.31
2023-05-04T11:41:15.133Z,22.93
2023-05-04T11:43:45.301Z,23.22
2023-05-04T11:46:14.684Z,23.50
2023-05-04T11:48:42.131Z,23.28
2023-05-04T11:51:10.035Z,22.84
2023-05-04T11:53:39.084Z,23.11
2023-05-04T11:56:10.664Z,23.44
2023-05-04T11:58:38.091Z,23.08
2023-05-04T12:01:05.906Z,22.72
2023-05-04T12:06:06.060Z,23.43
2023-05-04T12:08:42.008Z,23.86
2023-05-04T12:11:25.953Z,23.75
2023-05-04T12:14:14.034Z,24.07
2023-05-04T12:16:42.942Z,23.99
2023-05-04T12:19:13.128Z,24.32
2023-05-04T12:21:54.397Z,24.51
2023-05-04T12:24:23.848Z,24.42
2023-05-04T12:26:51.946Z,24.48
2023-05-04T12:29:19.154Z,24.35
2023-05-04T12:31:47.428Z,23.89
2023-05-04T12:34:14.724Z,23.30
2023-05-04T12:36:42.072Z,23.22
2023-05-04T12:39:09.283Z,23.69
2023-05-04T12:41:37.248Z,23.91
2023-05-04T12:44:04.727Z,23.38
2023-05-04T12:46:32.185Z,23.26
2023-05-04T12:48:59.337Z,23.62
2023-05-04T12:51:26.883Z,23.87
2023-05-04T12:53:55.616Z,23.88
2023-05-04T12:56:23.024Z,24.13
2023-05-04T12:58:50.240Z,24.81
2023-05-04T13:01:18.047Z,24.21
2023-05-04T13:03:45.421Z,24.35
2023-05-04T13:06:13.463Z,24.08
2023-05-04T13:08:40.688Z,23.14
2023-05-04T13:11:08.746Z,23.75
2023-05-04T13:13:36.136Z,24.14
2023-05-04T13:16:03.812Z,24.36
2023-05-04T13:18:31.136Z,24.48
2023-05-04T13:20:59.242Z,23.95
2023-05-04T13:23:26.716Z,24.01
2023-05-04T13:25:54.651Z,23.08
2023-05-04T13:28:21.873Z,23.24
2023-05-04T13:30:49.367Z,23.82
2023-05-04T13:33:27.911Z,23.99
2023-05-04T13:35:57.990Z,24.10
2023-05-04T13:38:25.720Z,24.30
2023-05-04T13:40:56.502Z,24.49
2023-05-04T13:43:24.889Z,24.97
2023-05-04T13:45:52.579Z,25.02
2023-05-04T13:48:19.755Z,24.80
2023-05-04T13:50:47.172Z,24.91
2023-05-04T13:53:14.701Z,25.27
2023-05-04T13:55:43.744Z,25.03
2023-05-04T13:58:11.021Z,25.10
2023-05-04T14:00:38.575Z,24.56
2023-05-04T14:03:05.744Z,24.54
2023-05-04T14:05:35.398Z,24.76
2023-05-04T14:08:02.932Z,24.65
2023-05-04T14:10:30.304Z,24.32
2023-05-04T14:12:57.707Z,24.32
2023-05-04T14:15:27.398Z,24.11
2023-05-04T14:17:54.654Z,24.05
2023-05-04T14:20:22.457Z,24.23
2023-05-04T14:22:49.622Z,23.95
2023-05-04T14:25:17.107Z,23.71
2023-05-04T14:27:44.363Z,23.94
2023-05-04T14:30:12.646Z,24.30
2023-05-04T14:32:41.076Z,24.61
2023-05-04T14:35:10.502Z,24.49
2023-05-04T14:37:40.383Z,23.85
2023-05-04T14:40:10.880Z,24.03
2023-05-04T14:42:38.460Z,24.34
2023-05-04T14:45:08.163Z,24.45
2023-05-04T14:47:35.709Z,24.62
2023-05-04T14:50:03.655Z,24.60
2023-05-04T14:52:31.539Z,24.52
2023-05-04T14:54:58.929Z,24.35
2023-05-04T14:57:28.751Z,24.31
2023-05-04T14:59:56.121Z,24.26
2023-05-04T15:02:23.504Z,24.32
2023-05-04T15:04:51.008Z,24.60
2023-05-04T15:07:20.634Z,24.72
2023-05-04T15:09:48.491Z,24.73
2023-05-04T15:12:16.466Z,24.41
2023-05-04T15:14:44.486Z,23.84
2023-05-04T15:17:12.068Z,23.86
2023-05-04T15:19:39.935Z,24.32
2023-05-04T15:22:07.578Z,24.57
2023-05-04T15:24:35.456Z,24.64
2023-05-04T15:27:03.660Z,24.95
2023-05-04T15:29:31.310Z,24.99
2023-05-04T15:31:58.558Z,24.93
2023-05-04T15:34:26.158Z,24.86
2023-05-04T15:36:55.014Z,24.55
2023-05-04T15:39:22.377Z,24.29
2023-05-04T15:41:49.488Z,24.37
2023-05-04T15:44:17.608Z,23.96
2023-05-04T15:46:45.511Z,24.09
2023-05-04T15:49:13.123Z,24.09
2023-05-04T15:51:40.392Z,23.78
2023-05-04T15:54:07.790Z,23.94
2023-05-04T15:56:35.363Z,23.91
2023-05-04T15:59:07.152Z,24.39
2023-05-04T16:01:34.371Z,24.51
2023-05-04T16:04:04.555Z,23.94
2023-05-04T16:06:31.773Z,23.70
2023-05-04T16:08:59.171Z,23.75
2023-05-04T16:11:26.312Z,23.83
2023-05-04T16:13:53.648Z,23.90
2023-05-04T16:16:20.938Z,23.48
2023-05-04T16:18:48.435Z,23.66
2023-05-04T16:21:15.724Z,23.31
2023-05-04T16:23:43.151Z,23.07
2023-05-04T16:26:10.482Z,23.17
2023-05-04T16:28:37.963Z,23.35
2023-05-04T16:31:06.031Z,23.49
2023-05-04T16:33:33.607Z,23.53
2023-05-04T16:36:00.826Z,23.30
2023-05-04T16:38:29.334Z,22.86
2023-05-04T16:40:56.487Z,22.98
2023-05-04T16:43:24.305Z,23.00
2023-05-04T16:45:51.422Z,22.88
2023-05-04T16:48:18.894Z,22.61
2023-05-04T16:50:46.440Z,22.37
2023-05-04T16:53:13.800Z,22.48
2023-05-04T16:55:41.032Z,21.99
2023-05-04T16:58:08.435Z,22.20
2023-05-04T17:00:35.770Z,22.39
2023-05-04T17:03:03.374Z,22.51
2023-05-04T17:05:30.647Z,22.52
2023-05-04T17:07:58.043Z,22.54
2023-05-04T17:10:25.210Z,22.51
2023-05-04T17:12:54.604Z,22.24
2023-05-04T17:15:21.924Z,22.11
2023-05-04T17:17:49.405Z,22.11
2023-05-04T17:20:16.591Z,21.98
2023-05-04T17:22:44.457Z,21.96
2023-05-04T17:25:12.696Z,22.00
2023-05-04T17:27:40.332Z,22.00
2023-05-04T17:30:08.347Z,21.94
2023-05-04T17:32:37.415Z,21.83
2023-05-04T17:35:16.482Z,21.68
2023-05-04T17:37:51.226Z,21.52
2023-05-04T17:40:18.419Z,21.40
2023-05-04T17:42:45.876Z,21.29
2023-05-04T17:45:13.140Z,21.14
2023-05-04T17:47:40.773Z,21.01
2023-05-04T17:50:08.584Z,20.82
2023-05-04T17:52:36.434Z,20.62
2023-05-04T17:55:04.378Z,20.43
2023-05-04T17:57:31.753Z,20.36
2023-05-04T17:59:59.696Z,20.32
2023-05-04T18:02:29.581Z,20.28
2023-05-04T18:04:56.812Z,20.18
2023-05-04T18:07:24.127Z,20.10
2023-05-04T18:09:51.581Z,20.00
2023-05-04T18:12:18.887Z,19.92
2023-05-04T18:14:46.014Z,19.84
2023-05-04T18:17:13.708Z,19.77
2023-05-04T18:19:40.713Z,19.66
2023-05-04T18:22:08.397Z,19.54
2023-05-04T18:24:35.581Z,19.45
2023-05-04T18:27:03.043Z,19.38
2023-05-04T18:29:30.720Z,19.30
2023-05-04T18:31:59.628Z,19.16
2023-05-04T18:34:26.732Z,19.01
2023-05-04T18:36:54.389Z,18.89
2023-05-04T18:39:21.655Z,18.80
2023-05-04T18:41:50.718Z,18.71
2023-05-04T18:44:17.803Z,18.63
2023-05-04T18:46:45.152Z,18.55
2023-05-04T18:49:12.287Z,18.48
2023-05-04T18:51:41.674Z,18.38
2023-05-04T18:54:09.043Z,18.29
2023-05-04T18:56:36.423Z,18.21
2023-05-04T18:59:05.882Z,18.12
2023-05-04T19:01:33.560Z,18.04
2023-05-04T19:04:00.788Z,17.93
2023-05-04T19:06:28.501Z,17.85
2023-05-04T19:08:55.808Z,17.77
2023-05-04T19:11:23.196Z,17.71
2023-05-04T19:13:50.219Z,17.63
2023-05-04T19:16:17.863Z,17.56
2023-05-04T19:18:45.621Z,17.50
2023-05-04T19:21:13.062Z,17.42
2023-05-04T19:23:40.257Z,17.32
2023-05-04T19:26:07.853Z,17.24
2023-05-04T19:28:35.274Z,17.13
2023-05-04T19:31:03.158Z,17.02
2023-05-04T19:33:44.546Z,16.93
2023-05-04T19:36:16.160Z,16.89
2023-05-04T19:38:43.423Z,16.84
2023-05-04T19:41:11.110Z,16.78
2023-05-04T19:43:38.830Z,16.72
2023-05-04T19:46:06.750Z,16.62
2023-05-04T19:48:34.093Z,16.55
2023-05-04T19:51:02.790Z,16.42
2023-05-04T19:53:31.114Z,16.35
2023-05-04T19:55:59.071Z,16.27
2023-05-04T19:58:28.089Z,16.20
2023-05-04T20:00:56.018Z,16.13
2023-05-04T20:03:25.519Z,16.06
2023-05-04T20:05:53.384Z,16.03
2023-05-04T20:08:20.850Z,15.96
2023-05-04T20:10:48.219Z,15.89
2023-05-04T20:13:15.435Z,15.83
2023-05-04T20:15:42.791Z,15.74
2023-05-04T20:18:10.005Z,15.67
2023-05-04T20:20:37.428Z,15.59
2023-05-04T20:23:05.014Z,15.52
2023-05-04T20:25:32.534Z,15.44
2023-05-04T20:27:59.730Z,15.37
2023-05-04T20:30:28.605Z,15.32
2023-05-04T20:32:55.754Z,15.24
2023-05-04T20:35:24.781Z,15.18
2023-05-04T20:37:51.922Z,15.12
2023-05-04T20:40:19.639Z,15.04
2023-05-04T20:42:46.814Z,14.97
2023-05-04T20:45:14.245Z,14.92
2023-05-04T20:47:41.471Z,14.86
2023-05-04T20:50:10.311Z,14.78
2023-05-04T20:52:38.431Z,14.68
2023-05-04T20:55:07.425Z,14.60
2023-05-04T20:57:34.867Z,14.55
2023-05-04T21:00:04.893Z,14.50
2023-05-04T21:02:32.659Z,14.43
2023-05-04T21:05:02.340Z,14.37
2023-05-04T21:07:29.594Z,14.33
2023-05-04T21:09:59.843Z,14.27
2023-05-04T21:12:27.049Z,14.22
2023-05-04T21:14:54.489Z,14.15
2023-05-04T21:17:21.746Z,14.11
2023-05-04T21:19:49.117Z,14.07
2023-05-04T21:22:17.601Z,13.99
2023-05-04T21:24:46.680Z,13.95
2023-05-04T21:27:14.137Z,13.86
2023-05-04T21:29:41.596Z,13.79
2023-05-04T21:32:09.124Z,13.70
2023-05-04T21:34:36.859Z,13.64
2023-05-04T21:37:04.239Z,13.62
2023-05-04T21:39:31.830Z,13.51
2023-05-04T21:41:59.102Z,13.46
2023-05-04T21:44:26.521Z,13.39
2023-05-04T21:46:53.763Z,13.34
2023-05-04T21:49:21.326Z,13.26
2023-05-04T21:51:49.164Z,13.24
2023-05-04T21:54:16.467Z,13.20
2023-05-04T21:56:43.608Z,13.18
2023-05-04T21:59:10.975Z,13.13
2023-05-04T22:01:38.224Z,13.15
2023-05-04T22:04:09.518Z,13.10
2023-05-04T22:06:36.721Z,13.07
2023-05-04T22:09:05.032Z,13.01
2023-05-04T22:11:32.354Z,12.95
2023-05-04T22:13:59.642Z,12.91
2023-05-04T22:16:26.926Z,12.89
2023-05-04T22:18:54.415Z,12.85
2023-05-04T22:21:21.553Z,12.81
2023-05-04T22:23:48.950Z,12.78
2023-05-04T22:26:16.135Z,12.76
2023-05-04T22:28:45.020Z,12.73
2023-05-04T22:31:12.261Z,12.69
2023-05-04T22:33:39.689Z,12.63
2023-05-04T22:36:07.425Z,12.57
2023-05-04T22:38:34.820Z,12.52
2023-05-04T22:41:04.257Z,12.50
2023-05-04T22:43:31.560Z,12.45
2023-05-04T22:45:58.729Z,12.41
2023-05-04T22:48:26.072Z,12.38
2023-05-04T22:50:53.312Z,12.33
2023-05-04T22:53:20.884Z,12.28
2023-05-04T22:55:48.031Z,12.21
2023-05-04T22:58:15.421Z,12.17
2023-05-04T23:00:43.099Z,12.17
2023-05-04T23:03:10.938Z,12.12
2023-05-04T23:05:38.055Z,12.10
2023-05-04T23:08:05.624Z,12.07
2023-05-04T23:10:32.795Z,12.02
2023-05-04T23:13:01.095Z,12.01
2023-05-04T23:15:29.511Z,11.93
2023-05-04T23:17:56.903Z,11.95
2023-05-04T23:20:24.193Z,11.90
2023-05-04T23:22:51.615Z,11.85
2023-05-04T23:25:18.891Z,11.82
2023-05-04T23:27:46.351Z,11.78
2023-05-04T23:30:14.050Z,11.74
2023-05-04T23:32:41.455Z,11.71
2023-05-04T23:35:09.275Z,11.68
2023-05-04T23:37:36.711Z,11.62
2023-05-04T23:40:05.692Z,11.58
2023-05-04T23:42:33.136Z,11.53
2023-05-04T23:45:00.211Z,11.49
2023-05-04T23:47:29.889Z,11.47
2023-05-04T23:49:57.017Z,11.43
2023-05-04T23:52:24.322Z,11.40
2023-05-04T23:54:54.791Z,11.35
2023-05-04T23:57:22.336Z,11.29
2023-05-04T23:59:49.668Z,11.27
